sensor_id;sensor_type;location;lat;lon;timestamp;P1;durP1;ratioP1;P2;durP2;ratioP2
21420;SDS011;10871;50.144;8.428;2023-04-01T00:01:11;7.80;;;2.25;;
21420;SDS011;10871;50.144;8.428;2023-04-01T00:03:40;10.98;;;1.95;;
21420;SDS011;10871;50.144;8.428;2023-04-01T00:06:07;9.05;;;2.10;;
21420;SDS011;10871;50.144;8.428;2023-04-01T00:08:34;7.00;;;1.92;;
21420;SDS011;10871;50.144;8.428;2023-04-01T00:11:00;7.60;;;2.00;;
21420;SDS011;10871;50.144;8.428;2023-04-01T00:13:27;4.65;;;2.15;;
21420;SDS011;10871;50.144;8.428;2023-04-01T00:15:54;7.50;;;2.15;;
21420;SDS011;10871;50.144;8.428;2023-04-01T00:18:22;6.15;;;1.75;;
21420;SDS011;10871;50.144;8.428;2023-04-01T00:20:51;8.43;;;2.38;;
21420;SDS011;10871;50.144;8.428;2023-04-01T00:23:18;9.80;;;2.17;;
21420;SDS011;10871;50.144;8.428;2023-04-01T00:25:45;5.80;;;1.80;;
21420;SDS011;10871;50.144;8.428;2023-04-01T00:28:16;7.90;;;1.85;;
21420;SDS011;10871;50.144;8.428;2023-04-01T00:30:42;9.70;;;2.10;;
21420;SDS011;10871;50.144;8.428;2023-04-01T00:33:09;5.90;;;1.83;;
21420;SDS011;10871;50.144;8.428;2023-04-01T00:35:36;6.55;;;2.00;;
21420;SDS011;10871;50.144;8.428;2023-04-01T00:38:03;8.45;;;2.70;;
21420;SDS011;10871;50.144;8.428;2023-04-01T00:40:31;8.40;;;2.00;;
21420;SDS011;10871;50.144;8.428;2023-04-01T00:43:02;8.20;;;2.88;;
21420;SDS011;10871;50.144;8.428;2023-04-01T00:45:35;8.43;;;2.08;;
21420;SDS011;10871;50.144;8.428;2023-04-01T00:48:22;5.57;;;1.83;;
21420;SDS011;10871;50.144;8.428;2023-04-01T00:50:54;8.93;;;1.95;;
21420;SDS011;10871;50.144;8.428;2023-04-01T00:53:22;5.38;;;1.88;;
21420;SDS011;10871;50.144;8.428;2023-04-01T00:55:50;7.70;;;2.00;;
21420;SDS011;10871;50.144;8.428;2023-04-01T00:58:20;6.25;;;2.03;;
21420;SDS011;10871;50.144;8.428;2023-04-01T01:00:47;6.25;;;1.77;;
21420;SDS011;10871;50.144;8.428;2023-04-01T01:03:15;7.20;;;1.80;;
21420;SDS011;10871;50.144;8.428;2023-04-01T01:08:30;5.80;;;1.90;;
21420;SDS011;10871;50.144;8.428;2023-04-01T01:10:58;8.00;;;1.80;;
21420;SDS011;10871;50.144;8.428;2023-04-01T01:13:32;6.28;;;1.95;;
21420;SDS011;10871;50.144;8.428;2023-04-01T01:16:22;8.32;;;1.95;;
21420;SDS011;10871;50.144;8.428;2023-04-01T01:31:50;7.95;;;1.65;;
21420;SDS011;10871;50.144;8.428;2023-04-01T01:36:48;6.88;;;1.75;;
21420;SDS011;10871;50.144;8.428;2023-04-01T01:39:17;7.10;;;1.90;;
21420;SDS011;10871;50.144;8.428;2023-04-01T01:41:45;4.60;;;1.70;;
21420;SDS011;10871;50.144;8.428;2023-04-01T01:44:16;3.92;;;1.20;;
21420;SDS011;10871;50.144;8.428;2023-04-01T01:46:43;5.22;;;1.50;;
21420;SDS011;10871;50.144;8.428;2023-04-01T01:49:10;6.07;;;1.30;;
21420;SDS011;10871;50.144;8.428;2023-04-01T01:51:37;2.80;;;1.50;;
21420;SDS011;10871;50.144;8.428;2023-04-01T01:54:12;7.35;;;1.67;;
21420;SDS011;10871;50.144;8.428;2023-04-01T01:56:39;8.52;;;1.85;;
21420;SDS011;10871;50.144;8.428;2023-04-01T01:59:08;5.78;;;1.65;;
21420;SDS011;10871;50.144;8.428;2023-04-01T02:01:37;5.25;;;1.73;;
21420;SDS011;10871;50.144;8.428;2023-04-01T02:04:10;4.95;;;1.98;;
21420;SDS011;10871;50.144;8.428;2023-04-01T02:06:38;7.05;;;2.00;;
21420;SDS011;10871;50.144;8.428;2023-04-01T02:09:07;8.43;;;2.00;;
21420;SDS011;10871;50.144;8.428;2023-04-01T02:14:11;5.93;;;1.90;;
21420;SDS011;10871;50.144;8.428;2023-04-01T02:16:50;3.97;;;1.50;;
21420;SDS011;10871;50.144;8.428;2023-04-01T02:19:19;7.43;;;1.77;;
21420;SDS011;10871;50.144;8.428;2023-04-01T02:21:50;5.63;;;1.52;;
21420;SDS011;10871;50.144;8.428;2023-04-01T02:24:19;5.53;;;1.63;;
21420;SDS011;10871;50.144;8.428;2023-04-01T02:26:49;6.32;;;1.67;;
21420;SDS011;10871;50.144;8.428;2023-04-01T02:29:16;5.30;;;1.58;;
21420;SDS011;10871;50.144;8.428;2023-04-01T02:31:44;5.32;;;1.27;;
21420;SDS011;10871;50.144;8.428;2023-04-01T02:34:12;6.47;;;1.48;;
21420;SDS011;10871;50.144;8.428;2023-04-01T02:36:39;6.75;;;1.77;;
21420;SDS011;10871;50.144;8.428;2023-04-01T02:39:05;4.28;;;1.45;;
21420;SDS011;10871;50.144;8.428;2023-04-01T02:41:38;4.70;;;1.55;;
21420;SDS011;10871;50.144;8.428;2023-04-01T02:44:05;4.35;;;1.65;;
21420;SDS011;10871;50.144;8.428;2023-04-01T02:46:32;5.20;;;1.48;;
21420;SDS011;10871;50.144;8.428;2023-04-01T02:48:58;2.97;;;1.58;;
21420;SDS011;10871;50.144;8.428;2023-04-01T02:51:26;6.75;;;1.63;;
21420;SDS011;10871;50.144;8.428;2023-04-01T02:53:52;6.03;;;1.45;;
21420;SDS011;10871;50.144;8.428;2023-04-01T02:56:19;3.03;;;1.30;;
21420;SDS011;10871;50.144;8.428;2023-04-01T02:58:46;6.88;;;1.50;;
21420;SDS011;10871;50.144;8.428;2023-04-01T03:01:13;4.53;;;1.70;;
21420;SDS011;10871;50.144;8.428;2023-04-01T03:03:39;6.13;;;1.50;;
21420;SDS011;10871;50.144;8.428;2023-04-01T03:06:10;6.50;;;2.05;;
21420;SDS011;10871;50.144;8.428;2023-04-01T03:08:37;5.38;;;1.40;;
21420;SDS011;10871;50.144;8.428;2023-04-01T03:11:04;3.35;;;1.33;;
21420;SDS011;10871;50.144;8.428;2023-04-01T03:13:33;6.40;;;1.33;;
21420;SDS011;10871;50.144;8.428;2023-04-01T03:16:00;4.05;;;1.27;;
21420;SDS011;10871;50.144;8.428;2023-04-01T03:18:27;6.65;;;1.58;;
21420;SDS011;10871;50.144;8.428;2023-04-01T03:20:53;6.20;;;1.58;;
21420;SDS011;10871;50.144;8.428;2023-04-01T03:23:20;6.15;;;1.38;;
21420;SDS011;10871;50.144;8.428;2023-04-01T03:25:47;5.22;;;1.40;;
21420;SDS011;10871;50.144;8.428;2023-04-01T03:28:15;4.50;;;1.58;;
21420;SDS011;10871;50.144;8.428;2023-04-01T03:30:42;9.07;;;1.63;;
21420;SDS011;10871;50.144;8.428;2023-04-01T03:33:09;6.22;;;1.60;;
21420;SDS011;10871;50.144;8.428;2023-04-01T03:35:36;5.78;;;1.50;;
21420;SDS011;10871;50.144;8.428;2023-04-01T03:38:03;5.10;;;1.67;;
21420;SDS011;10871;50.144;8.428;2023-04-01T03:40:29;3.85;;;1.70;;
21420;SDS011;10871;50.144;8.428;2023-04-01T03:42:56;4.55;;;1.58;;
21420;SDS011;10871;50.144;8.428;2023-04-01T03:45:23;6.03;;;1.50;;
21420;SDS011;10871;50.144;8.428;2023-04-01T03:47:49;3.45;;;1.40;;
21420;SDS011;10871;50.144;8.428;2023-04-01T03:50:16;4.00;;;1.67;;
21420;SDS011;10871;50.144;8.428;2023-04-01T03:52:43;5.88;;;1.77;;
21420;SDS011;10871;50.144;8.428;2023-04-01T03:55:11;6.50;;;1.45;;
21420;SDS011;10871;50.144;8.428;2023-04-01T03:57:39;10.15;;;1.70;;
21420;SDS011;10871;50.144;8.428;2023-04-01T04:00:14;5.68;;;1.90;;
21420;SDS011;10871;50.144;8.428;2023-04-01T04:02:43;6.03;;;1.67;;
21420;SDS011;10871;50.144;8.428;2023-04-01T04:05:18;5.25;;;1.63;;
21420;SDS011;10871;50.144;8.428;2023-04-01T04:07:45;6.32;;;1.88;;
21420;SDS011;10871;50.144;8.428;2023-04-01T04:10:11;5.93;;;1.60;;
21420;SDS011;10871;50.144;8.428;2023-04-01T04:12:38;6.28;;;1.85;;
21420;SDS011;10871;50.144;8.428;2023-04-01T04:15:07;3.72;;;1.70;;
21420;SDS011;10871;50.144;8.428;2023-04-01T04:17:35;6.20;;;1.90;;
21420;SDS011;10871;50.144;8.428;2023-04-01T04:20:01;6.22;;;2.10;;
21420;SDS011;10871;50.144;8.428;2023-04-01T04:22:28;4.55;;;2.00;;
21420;SDS011;10871;50.144;8.428;2023-04-01T04:24:55;5.60;;;1.90;;
21420;SDS011;10871;50.144;8.428;2023-04-01T04:27:22;7.03;;;1.95;;
21420;SDS011;10871;50.144;8.428;2023-04-01T04:30:00;8.52;;;1.70;;
21420;SDS011;10871;50.144;8.428;2023-04-01T04:32:28;5.03;;;1.80;;
21420;SDS011;10871;50.144;8.428;2023-04-01T04:34:56;7.15;;;1.92;;
21420;SDS011;10871;50.144;8.428;2023-04-01T04:37:23;4.40;;;1.60;;
21420;SDS011;10871;50.144;8.428;2023-04-01T04:39:49;6.70;;;1.80;;
21420;SDS011;10871;50.144;8.428;2023-04-01T04:42:16;3.47;;;1.52;;
21420;SDS011;10871;50.144;8.428;2023-04-01T04:44:44;8.18;;;1.45;;
21420;SDS011;10871;50.144;8.428;2023-04-01T04:47:10;4.63;;;1.40;;
21420;SDS011;10871;50.144;8.428;2023-04-01T04:49:37;6.00;;;1.20;;
21420;SDS011;10871;50.144;8.428;2023-04-01T04:52:07;7.22;;;1.73;;
21420;SDS011;10871;50.144;8.428;2023-04-01T04:54:34;4.72;;;1.42;;
21420;SDS011;10871;50.144;8.428;2023-04-01T04:57:02;6.32;;;1.42;;
21420;SDS011;10871;50.144;8.428;2023-04-01T04:59:34;4.45;;;1.50;;
21420;SDS011;10871;50.144;8.428;2023-04-01T05:02:11;3.85;;;1.55;;
21420;SDS011;10871;50.144;8.428;2023-04-01T05:04:37;6.55;;;2.13;;
21420;SDS011;10871;50.144;8.428;2023-04-01T05:07:08;6.90;;;1.80;;
21420;SDS011;10871;50.144;8.428;2023-04-01T05:09:34;6.22;;;2.00;;
21420;SDS011;10871;50.144;8.428;2023-04-01T05:12:01;8.68;;;2.00;;
21420;SDS011;10871;50.144;8.428;2023-04-01T05:14:40;6.38;;;1.85;;
21420;SDS011;10871;50.144;8.428;2023-04-01T05:17:09;5.75;;;1.80;;
21420;SDS011;10871;50.144;8.428;2023-04-01T05:19:37;6.47;;;2.35;;
21420;SDS011;10871;50.144;8.428;2023-04-01T05:22:03;6.63;;;2.05;;
21420;SDS011;10871;50.144;8.428;2023-04-01T05:24:31;6.07;;;1.92;;
21420;SDS011;10871;50.144;8.428;2023-04-01T05:26:57;7.53;;;1.70;;
21420;SDS011;10871;50.144;8.428;2023-04-01T05:29:25;5.95;;;1.92;;
21420;SDS011;10871;50.144;8.428;2023-04-01T05:32:00;5.22;;;1.70;;
21420;SDS011;10871;50.144;8.428;2023-04-01T05:34:27;5.40;;;1.75;;
21420;SDS011;10871;50.144;8.428;2023-04-01T05:36:54;6.78;;;1.95;;
21420;SDS011;10871;50.144;8.428;2023-04-01T05:39:21;5.93;;;1.60;;
21420;SDS011;10871;50.144;8.428;2023-04-01T05:41:48;8.82;;;1.80;;
21420;SDS011;10871;50.144;8.428;2023-04-01T05:44:18;4.70;;;1.60;;
21420;SDS011;10871;50.144;8.428;2023-04-01T05:46:47;5.65;;;1.48;;
21420;SDS011;10871;50.144;8.428;2023-04-01T05:49:19;6.43;;;1.40;;
21420;SDS011;10871;50.144;8.428;2023-04-01T05:51:46;8.38;;;1.92;;
21420;SDS011;10871;50.144;8.428;2023-04-01T05:54:14;2.13;;;1.20;;
21420;SDS011;10871;50.144;8.428;2023-04-01T05:56:41;5.80;;;1.52;;
21420;SDS011;10871;50.144;8.428;2023-04-01T05:59:09;4.20;;;1.17;;
21420;SDS011;10871;50.144;8.428;2023-04-01T06:01:36;3.90;;;1.52;;
21420;SDS011;10871;50.144;8.428;2023-04-01T06:04:03;4.15;;;1.42;;
21420;SDS011;10871;50.144;8.428;2023-04-01T06:06:30;4.93;;;1.10;;
21420;SDS011;10871;50.144;8.428;2023-04-01T06:27:36;4.28;;;1.48;;
21420;SDS011;10871;50.144;8.428;2023-04-01T06:30:11;4.85;;;1.20;;
21420;SDS011;10871;50.144;8.428;2023-04-01T06:33:30;5.55;;;1.30;;
21420;SDS011;10871;50.144;8.428;2023-04-01T06:38:35;7.22;;;1.60;;
21420;SDS011;10871;50.144;8.428;2023-04-01T06:47:00;6.03;;;1.60;;
21420;SDS011;10871;50.144;8.428;2023-04-01T06:53:06;5.55;;;1.67;;
21420;SDS011;10871;50.144;8.428;2023-04-01T06:56:05;5.82;;;1.50;;
21420;SDS011;10871;50.144;8.428;2023-04-01T06:58:53;4.55;;;1.40;;
21420;SDS011;10871;50.144;8.428;2023-04-01T07:01:29;4.07;;;1.23;;
21420;SDS011;10871;50.144;8.428;2023-04-01T07:04:00;2.55;;;1.42;;
21420;SDS011;10871;50.144;8.428;2023-04-01T07:06:31;3.53;;;1.10;;
21420;SDS011;10871;50.144;8.428;2023-04-01T07:09:03;4.38;;;1.25;;
21420;SDS011;10871;50.144;8.428;2023-04-01T07:11:52;4.57;;;1.27;;
21420;SDS011;10871;50.144;8.428;2023-04-01T07:14:39;3.40;;;1.10;;
21420;SDS011;10871;50.144;8.428;2023-04-01T07:22:27;2.83;;;0.90;;
21420;SDS011;10871;50.144;8.428;2023-04-01T07:25:18;5.53;;;1.02;;
21420;SDS011;10871;50.144;8.428;2023-04-01T07:27:56;2.08;;;0.80;;
21420;SDS011;10871;50.144;8.428;2023-04-01T07:30:26;2.72;;;1.15;;
21420;SDS011;10871;50.144;8.428;2023-04-01T07:33:10;4.53;;;1.02;;
21420;SDS011;10871;50.144;8.428;2023-04-01T07:35:41;4.38;;;1.25;;
21420;SDS011;10871;50.144;8.428;2023-04-01T07:49:03;2.45;;;1.00;;
21420;SDS011;10871;50.144;8.428;2023-04-01T07:51:43;2.72;;;0.88;;
21420;SDS011;10871;50.144;8.428;2023-04-01T07:54:17;1.48;;;0.70;;
21420;SDS011;10871;50.144;8.428;2023-04-01T07:56:57;2.22;;;0.80;;
21420;SDS011;10871;50.144;8.428;2023-04-01T08:10:44;1.95;;;0.70;;
21420;SDS011;10871;50.144;8.428;2023-04-01T08:19:45;2.80;;;0.80;;
21420;SDS011;10871;50.144;8.428;2023-04-01T08:22:16;1.30;;;0.70;;
21420;SDS011;10871;50.144;8.428;2023-04-01T08:24:54;0.65;;;0.60;;
21420;SDS011;10871;50.144;8.428;2023-04-01T08:27:45;1.52;;;0.80;;
21420;SDS011;10871;50.144;8.428;2023-04-01T08:32:40;1.77;;;0.65;;
21420;SDS011;10871;50.144;8.428;2023-04-01T08:35:26;1.17;;;0.50;;
21420;SDS011;10871;50.144;8.428;2023-04-01T08:37:58;1.40;;;0.70;;
21420;SDS011;10871;50.144;8.428;2023-04-01T08:40:37;1.20;;;0.70;;
21420;SDS011;10871;50.144;8.428;2023-04-01T08:48:22;1.52;;;0.70;;
21420;SDS011;10871;50.144;8.428;2023-04-01T08:51:11;2.72;;;0.70;;
21420;SDS011;10871;50.144;8.428;2023-04-01T08:53:52;1.33;;;0.60;;
21420;SDS011;10871;50.144;8.428;2023-04-01T08:59:15;1.10;;;0.65;;
21420;SDS011;10871;50.144;8.428;2023-04-01T09:02:15;0.80;;;0.60;;
21420;SDS011;10871;50.144;8.428;2023-04-01T09:07:35;0.95;;;0.60;;
21420;SDS011;10871;50.144;8.428;2023-04-01T09:23:02;1.13;;;0.68;;
21420;SDS011;10871;50.144;8.428;2023-04-01T09:28:22;1.10;;;0.60;;
21420;SDS011;10871;50.144;8.428;2023-04-01T09:33:36;1.40;;;0.60;;
21420;SDS011;10871;50.144;8.428;2023-04-01T09:38:55;0.73;;;0.55;;
21420;SDS011;10871;50.144;8.428;2023-04-01T09:41:29;1.25;;;0.70;;
21420;SDS011;10871;50.144;8.428;2023-04-01T09:44:17;0.60;;;0.60;;
21420;SDS011;10871;50.144;8.428;2023-04-01T09:47:10;1.67;;;0.70;;
21420;SDS011;10871;50.144;8.428;2023-04-01T09:58:00;0.70;;;0.70;;
21420;SDS011;10871;50.144;8.428;2023-04-01T10:01:16;2.80;;;0.80;;
21420;SDS011;10871;50.144;8.428;2023-04-01T10:04:10;1.40;;;0.60;;
21420;SDS011;10871;50.144;8.428;2023-04-01T10:16:54;0.75;;;0.75;;
21420;SDS011;10871;50.144;8.428;2023-04-01T10:22:02;1.30;;;0.60;;
21420;SDS011;10871;50.144;8.428;2023-04-01T10:27:30;0.80;;;0.80;;
21420;SDS011;10871;50.144;8.428;2023-04-01T10:30:27;1.80;;;1.00;;
21420;SDS011;10871;50.144;8.428;2023-04-01T10:35:57;1.77;;;0.60;;
21420;SDS011;10871;50.144;8.428;2023-04-01T10:41:10;1.00;;;0.60;;
21420;SDS011;10871;50.144;8.428;2023-04-01T10:54:56;1.00;;;0.50;;
21420;SDS011;10871;50.144;8.428;2023-04-01T11:09:40;1.90;;;0.60;;
21420;SDS011;10871;50.144;8.428;2023-04-01T11:20:11;0.50;;;0.50;;
21420;SDS011;10871;50.144;8.428;2023-04-01T11:28:37;2.35;;;0.70;;
21420;SDS011;10871;50.144;8.428;2023-04-01T11:31:35;0.77;;;0.57;;
21420;SDS011;10871;50.144;8.428;2023-04-01T11:34:01;1.45;;;0.70;;
21420;SDS011;10871;50.144;8.428;2023-04-01T11:36:37;1.02;;;0.70;;
21420;SDS011;10871;50.144;8.428;2023-04-01T11:39:19;0.80;;;0.70;;
21420;SDS011;10871;50.144;8.428;2023-04-01T11:42:10;0.60;;;0.60;;
21420;SDS011;10871;50.144;8.428;2023-04-01T11:45:19;0.75;;;0.70;;
21420;SDS011;10871;50.144;8.428;2023-04-01T11:50:21;0.82;;;0.82;;
21420;SDS011;10871;50.144;8.428;2023-04-01T11:52:55;0.70;;;0.70;;
21420;SDS011;10871;50.144;8.428;2023-04-01T12:00:57;0.90;;;0.90;;
21420;SDS011;10871;50.144;8.428;2023-04-01T12:03:30;1.23;;;0.95;;
21420;SDS011;10871;50.144;8.428;2023-04-01T12:14:03;0.63;;;0.63;;
21420;SDS011;10871;50.144;8.428;2023-04-01T12:24:27;0.70;;;0.60;;
21420;SDS011;10871;50.144;8.428;2023-04-01T12:29:48;0.68;;;0.60;;
21420;SDS011;10871;50.144;8.428;2023-04-01T12:37:22;0.68;;;0.60;;
21420;SDS011;10871;50.144;8.428;2023-04-01T12:42:58;0.90;;;0.55;;
21420;SDS011;10871;50.144;8.428;2023-04-01T12:45:29;1.70;;;0.77;;
21420;SDS011;10871;50.144;8.428;2023-04-01T12:50:45;0.68;;;0.60;;
21420;SDS011;10871;50.144;8.428;2023-04-01T12:56:04;0.65;;;0.60;;
21420;SDS011;10871;50.144;8.428;2023-04-01T13:04:18;0.70;;;0.70;;
21420;SDS011;10871;50.144;8.428;2023-04-01T13:06:46;0.93;;;0.60;;
21420;SDS011;10871;50.144;8.428;2023-04-01T13:17:49;0.60;;;0.60;;
21420;SDS011;10871;50.144;8.428;2023-04-01T13:22:52;0.50;;;0.50;;
21420;SDS011;10871;50.144;8.428;2023-04-01T13:27:51;1.40;;;0.80;;
21420;SDS011;10871;50.144;8.428;2023-04-01T13:32:54;1.00;;;0.70;;
21420;SDS011;10871;50.144;8.428;2023-04-01T13:40:52;1.33;;;0.80;;
21420;SDS011;10871;50.144;8.428;2023-04-01T13:43:30;2.38;;;0.70;;
21420;SDS011;10871;50.144;8.428;2023-04-01T13:48:36;2.30;;;0.82;;
21420;SDS011;10871;50.144;8.428;2023-04-01T13:54:35;0.82;;;0.73;;
21420;SDS011;10871;50.144;8.428;2023-04-01T13:59:14;1.10;;;0.60;;
21420;SDS011;10871;50.144;8.428;2023-04-01T14:01:47;0.88;;;0.60;;
21420;SDS011;10871;50.144;8.428;2023-04-01T14:07:08;0.68;;;0.55;;
21420;SDS011;10871;50.144;8.428;2023-04-01T14:12:05;1.00;;;0.60;;
21420;SDS011;10871;50.144;8.428;2023-04-01T14:14:55;0.73;;;0.57;;
21420;SDS011;10871;50.144;8.428;2023-04-01T14:17:31;0.50;;;0.50;;
21420;SDS011;10871;50.144;8.428;2023-04-01T14:23:05;2.88;;;0.65;;
21420;SDS011;10871;50.144;8.428;2023-04-01T14:33:21;1.10;;;0.70;;
21420;SDS011;10871;50.144;8.428;2023-04-01T14:38:27;2.22;;;0.70;;
21420;SDS011;10871;50.144;8.428;2023-04-01T14:45:55;0.60;;;0.60;;
21420;SDS011;10871;50.144;8.428;2023-04-01T14:51:15;2.45;;;0.88;;
21420;SDS011;10871;50.144;8.428;2023-04-01T14:53:43;0.93;;;0.80;;
21420;SDS011;10871;50.144;8.428;2023-04-01T14:56:12;1.33;;;0.80;;
21420;SDS011;10871;50.144;8.428;2023-04-01T14:58:46;0.60;;;0.60;;
21420;SDS011;10871;50.144;8.428;2023-04-01T15:01:17;0.75;;;0.60;;
21420;SDS011;10871;50.144;8.428;2023-04-01T15:03:58;1.15;;;0.70;;
21420;SDS011;10871;50.144;8.428;2023-04-01T15:06:42;0.75;;;0.75;;
21420;SDS011;10871;50.144;8.428;2023-04-01T15:09:14;1.60;;;0.77;;
21420;SDS011;10871;50.144;8.428;2023-04-01T15:11:56;0.63;;;0.60;;
21420;SDS011;10871;50.144;8.428;2023-04-01T15:14:29;2.15;;;0.80;;
21420;SDS011;10871;50.144;8.428;2023-04-01T15:17:05;0.93;;;0.80;;
21420;SDS011;10871;50.144;8.428;2023-04-01T15:24:46;1.88;;;0.68;;
21420;SDS011;10871;50.144;8.428;2023-04-01T15:27:23;1.30;;;0.90;;
21420;SDS011;10871;50.144;8.428;2023-04-01T15:33:09;0.80;;;0.80;;
21420;SDS011;10871;50.144;8.428;2023-04-01T15:38:30;1.83;;;0.80;;
21420;SDS011;10871;50.144;8.428;2023-04-01T15:43:47;0.60;;;0.60;;
21420;SDS011;10871;50.144;8.428;2023-04-01T15:46:29;1.70;;;0.83;;
21420;SDS011;10871;50.144;8.428;2023-04-01T15:54:23;1.85;;;0.80;;
21420;SDS011;10871;50.144;8.428;2023-04-01T15:57:04;0.98;;;0.85;;
21420;SDS011;10871;50.144;8.428;2023-04-01T16:07:21;2.15;;;0.80;;
21420;SDS011;10871;50.144;8.428;2023-04-01T16:12:50;1.35;;;0.68;;
21420;SDS011;10871;50.144;8.428;2023-04-01T16:15:29;1.33;;;0.65;;
21420;SDS011;10871;50.144;8.428;2023-04-01T16:20:42;1.27;;;0.68;;
21420;SDS011;10871;50.144;8.428;2023-04-01T16:23:13;0.50;;;0.50;;
21420;SDS011;10871;50.144;8.428;2023-04-01T16:25:44;1.02;;;0.68;;
21420;SDS011;10871;50.144;8.428;2023-04-01T16:36:27;0.50;;;0.50;;
21420;SDS011;10871;50.144;8.428;2023-04-01T16:41:35;0.75;;;0.60;;
21420;SDS011;10871;50.144;8.428;2023-04-01T16:47:13;0.70;;;0.70;;
21420;SDS011;10871;50.144;8.428;2023-04-01T16:49:32;1.00;;;0.75;;
21420;SDS011;10871;50.144;8.428;2023-04-01T16:54:50;2.60;;;1.00;;
21420;SDS011;10871;50.144;8.428;2023-04-01T17:02:51;1.48;;;1.17;;
21420;SDS011;10871;50.144;8.428;2023-04-01T17:05:18;0.82;;;0.70;;
21420;SDS011;10871;50.144;8.428;2023-04-01T17:07:59;0.70;;;0.70;;
21420;SDS011;10871;50.144;8.428;2023-04-01T17:18:04;0.77;;;0.77;;
21420;SDS011;10871;50.144;8.428;2023-04-01T17:20:54;0.90;;;0.85;;
21420;SDS011;10871;50.144;8.428;2023-04-01T17:25:55;1.20;;;0.80;;
21420;SDS011;10871;50.144;8.428;2023-04-01T17:33:43;1.02;;;0.90;;
21420;SDS011;10871;50.144;8.428;2023-04-01T17:44:29;0.88;;;0.80;;
21420;SDS011;10871;50.144;8.428;2023-04-01T17:52:11;0.90;;;0.90;;
21420;SDS011;10871;50.144;8.428;2023-04-01T17:54:46;0.90;;;0.90;;
21420;SDS011;10871;50.144;8.428;2023-04-01T17:57:27;1.30;;;1.20;;
21420;SDS011;10871;50.144;8.428;2023-04-01T18:02:39;1.33;;;1.10;;
21420;SDS011;10871;50.144;8.428;2023-04-01T18:07:43;0.90;;;0.90;;
21420;SDS011;10871;50.144;8.428;2023-04-01T18:15:45;2.58;;;1.10;;
21420;SDS011;10871;50.144;8.428;2023-04-01T18:23:46;1.80;;;1.30;;
21420;SDS011;10871;50.144;8.428;2023-04-01T18:26:34;1.98;;;1.25;;
21420;SDS011;10871;50.144;8.428;2023-04-01T18:31:45;2.00;;;1.40;;
21420;SDS011;10871;50.144;8.428;2023-04-01T18:34:38;1.70;;;1.60;;
21420;SDS011;10871;50.144;8.428;2023-04-01T18:39:42;1.50;;;1.40;;
21420;SDS011;10871;50.144;8.428;2023-04-01T18:42:30;1.80;;;1.70;;
21420;SDS011;10871;50.144;8.428;2023-04-01T18:45:04;3.45;;;1.73;;
21420;SDS011;10871;50.144;8.428;2023-04-01T18:50:38;2.05;;;1.90;;
21420;SDS011;10871;50.144;8.428;2023-04-01T18:53:15;2.65;;;1.95;;
21420;SDS011;10871;50.144;8.428;2023-04-01T19:00:41;3.40;;;1.60;;
21420;SDS011;10871;50.144;8.428;2023-04-01T19:05:42;2.22;;;1.63;;
21420;SDS011;10871;50.144;8.428;2023-04-01T19:08:14;2.72;;;1.63;;
21420;SDS011;10871;50.144;8.428;2023-04-01T19:16:09;2.80;;;2.28;;
21420;SDS011;10871;50.144;8.428;2023-04-01T19:18:51;3.20;;;1.60;;
21420;SDS011;10871;50.144;8.428;2023-04-01T19:24:12;3.60;;;1.83;;
21420;SDS011;10871;50.144;8.428;2023-04-01T19:26:48;2.63;;;2.28;;
21420;SDS011;10871;50.144;8.428;2023-04-01T19:29:18;2.10;;;1.75;;
21420;SDS011;10871;50.144;8.428;2023-04-01T19:31:56;19.10;;;10.68;;
21420;SDS011;10871;50.144;8.428;2023-04-01T19:39:43;3.83;;;3.40;;
21420;SDS011;10871;50.144;8.428;2023-04-01T19:44:57;2.40;;;1.60;;
21420;SDS011;10871;50.144;8.428;2023-04-01T19:52:51;1.70;;;1.60;;
21420;SDS011;10871;50.144;8.428;2023-04-01T20:03:34;3.03;;;2.72;;
21420;SDS011;10871;50.144;8.428;2023-04-01T20:08:38;2.63;;;2.42;;
21420;SDS011;10871;50.144;8.428;2023-04-01T20:11:50;3.40;;;2.40;;
21420;SDS011;10871;50.144;8.428;2023-04-01T20:16:23;2.40;;;2.20;;
21420;SDS011;10871;50.144;8.428;2023-04-01T20:19:03;3.53;;;2.10;;
21420;SDS011;10871;50.144;8.428;2023-04-01T20:21:33;3.72;;;3.08;;
21420;SDS011;10871;50.144;8.428;2023-04-01T20:26:40;3.83;;;3.28;;
21420;SDS011;10871;50.144;8.428;2023-04-01T20:31:59;4.43;;;2.88;;
21420;SDS011;10871;50.144;8.428;2023-04-01T20:34:33;3.25;;;2.95;;
21420;SDS011;10871;50.144;8.428;2023-04-01T20:44:43;4.80;;;3.15;;
21420;SDS011;10871;50.144;8.428;2023-04-01T20:54:43;4.85;;;3.28;;
21420;SDS011;10871;50.144;8.428;2023-04-01T20:57:17;4.13;;;3.72;;
21420;SDS011;10871;50.144;8.428;2023-04-01T21:02:38;3.80;;;3.40;;
21420;SDS011;10871;50.144;8.428;2023-04-01T21:07:58;3.78;;;3.30;;
21420;SDS011;10871;50.144;8.428;2023-04-01T21:21:40;4.97;;;3.20;;
21420;SDS011;10871;50.144;8.428;2023-04-01T21:26:52;4.90;;;3.72;;
21420;SDS011;10871;50.144;8.428;2023-04-01T21:29:43;4.07;;;3.55;;
21420;SDS011;10871;50.144;8.428;2023-04-01T21:37:32;4.25;;;3.45;;
21420;SDS011;10871;50.144;8.428;2023-04-01T21:42:49;4.50;;;2.78;;
21420;SDS011;10871;50.144;8.428;2023-04-01T22:00:53;2.95;;;2.65;;
21420;SDS011;10871;50.144;8.428;2023-04-01T22:03:27;3.30;;;2.80;;
21420;SDS011;10871;50.144;8.428;2023-04-01T22:06:22;2.92;;;2.63;;
21420;SDS011;10871;50.144;8.428;2023-04-01T22:08:53;3.67;;;2.55;;
21420;SDS011;10871;50.144;8.428;2023-04-01T22:11:42;3.50;;;2.42;;
21420;SDS011;10871;50.144;8.428;2023-04-01T22:14:21;2.60;;;2.40;;
21420;SDS011;10871;50.144;8.428;2023-04-01T22:16:59;1.98;;;1.88;;
21420;SDS011;10871;50.144;8.428;2023-04-01T22:24:42;2.17;;;1.88;;
21420;SDS011;10871;50.144;8.428;2023-04-01T22:30:06;2.15;;;1.95;;
21420;SDS011;10871;50.144;8.428;2023-04-01T22:35:08;2.00;;;1.90;;
21420;SDS011;10871;50.144;8.428;2023-04-01T22:45:18;6.68;;;4.90;;
21420;SDS011;10871;50.144;8.428;2023-04-01T22:48:04;7.03;;;5.20;;
21420;SDS011;10871;50.144;8.428;2023-04-01T22:50:36;6.90;;;5.95;;
21420;SDS011;10871;50.144;8.428;2023-04-01T22:55:33;6.22;;;5.63;;
21420;SDS011;10871;50.144;8.428;2023-04-01T22:58:07;6.03;;;5.20;;
21420;SDS011;10871;50.144;8.428;2023-04-01T23:00:48;6.03;;;5.43;;
21420;SDS011;10871;50.144;8.428;2023-04-01T23:03:33;7.75;;;5.03;;
21420;SDS011;10871;50.144;8.428;2023-04-01T23:06:01;6.43;;;4.60;;
21420;SDS011;10871;50.144;8.428;2023-04-01T23:11:15;6.53;;;4.47;;
21420;SDS011;10871;50.144;8.428;2023-04-01T23:13:44;7.85;;;4.40;;
21420;SDS011;10871;50.144;8.428;2023-04-01T23:16:14;4.90;;;4.25;;
21420;SDS011;10871;50.144;8.428;2023-04-01T23:18:46;5.78;;;4.45;;
21420;SDS011;10871;50.144;8.428;2023-04-01T23:28:54;6.05;;;5.40;;
21420;SDS011;10871;50.144;8.428;2023-04-01T23:31:29;5.65;;;5.10;;
21420;SDS011;10871;50.144;8.428;2023-04-01T23:33:56;5.65;;;5.15;;
21420;SDS011;10871;50.144;8.428;2023-04-01T23:36:24;6.00;;;4.45;;
21420;SDS011;10871;50.144;8.428;2023-04-01T23:38:51;5.03;;;4.63;;
21420;SDS011;10871;50.144;8.428;2023-04-01T23:41:19;4.88;;;4.07;;
21420;SDS011;10871;50.144;8.428;2023-04-01T23:43:48;5.72;;;4.32;;
21420;SDS011;10871;50.144;8.428;2023-04-01T23:46:19;5.45;;;4.40;;
21420;SDS011;10871;50.144;8.428;2023-04-01T23:48:45;5.22;;;4.20;;
21420;SDS011;10871;50.144;8.428;2023-04-01T23:51:13;4.43;;;4.00;;
21420;SDS011;10871;50.144;8.428;2023-04-01T23:53:42;6.00;;;4.30;;
21420;SDS011;10871;50.144;8.428;2023-04-01T23:56:09;5.57;;;4.45;;
21420;SDS011;10871;50.144;8.428;2023-04-01T23:58:44;5.00;;;4.40;;
